sensor_id;sensor_type;location;lat;lon;timestamp;noise_LAeq;noise_LA_min;noise_LA_max;noise_LA01;noise_LA95
45109;Laerm;30447;48.742;8.972;2023-06-14T14:03:17;47.22;37.87;71.63;;
45109;Laerm;30447;48.742;8.972;2023-06-14T14:05:46;44.43;38.21;62.91;;
45109;Laerm;30447;48.742;8.972;2023-06-14T14:08:12;42.59;36.69;56.32;;
45109;Laerm;30447;48.742;8.972;2023-06-14T14:10:39;42.55;38.05;59.18;;
45109;Laerm;30447;48.742;8.972;2023-06-14T14:13:05;42.91;36.45;59.93;;
45109;Laerm;30447;48.742;8.972;2023-06-14T14:15:32;41.04;37.35;52.19;;
45109;Laerm;30447;48.742;8.972;2023-06-14T14:18:01;42.18;36.69;59.50;;
45109;Laerm;30447;48.742;8.972;2023-06-14T14:20:32;49.74;35.94;67.61;;
45109;Laerm;30447;48.742;8.972;2023-06-14T14:22:59;41.68;37.52;52.88;;
45109;Laerm;30447;48.742;8.972;2023-06-14T14:25:26;45.86;36.91;65.99;;
45109;Laerm;30447;48.742;8.972;2023-06-14T14:27:52;51.88;37.32;68.95;;
45109;Laerm;30447;48.742;8.972;2023-06-14T14:30:19;51.67;36.20;73.64;;
45109;Laerm;30447;48.742;8.972;2023-06-14T14:32:50;52.62;35.94;71.78;;
45109;Laerm;30447;48.742;8.972;2023-06-14T14:35:17;52.99;36.91;70.84;;
45109;Laerm;30447;48.742;8.972;2023-06-14T14:37:45;52.14;37.70;68.16;;
45109;Laerm;30447;48.742;8.972;2023-06-14T14:40:12;49.77;38.05;68.76;;
45109;Laerm;30447;48.742;8.972;2023-06-14T14:42:38;46.43;37.32;66.16;;
45109;Laerm;30447;48.742;8.972;2023-06-14T14:45:06;44.87;38.67;66.32;;
45109;Laerm;30447;48.742;8.972;2023-06-14T14:47:33;44.72;37.12;68.73;;
45109;Laerm;30447;48.742;8.972;2023-06-14T14:49:59;57.65;36.45;73.94;;
45109;Laerm;30447;48.742;8.972;2023-06-14T14:52:26;40.97;36.69;53.34;;
45109;Laerm;30447;48.742;8.972;2023-06-14T14:54:53;41.60;36.69;57.10;;
45109;Laerm;30447;48.742;8.972;2023-06-14T14:57:21;41.77;37.70;52.42;;
45109;Laerm;30447;48.742;8.972;2023-06-14T14:59:48;41.52;37.88;48.94;;
45109;Laerm;30447;48.742;8.972;2023-06-14T15:02:14;49.77;37.52;67.26;;
45109;Laerm;30447;48.742;8.972;2023-06-14T15:04:41;51.23;37.53;68.16;;
45109;Laerm;30447;48.742;8.972;2023-06-14T15:07:08;51.70;36.69;67.57;;
45109;Laerm;30447;48.742;8.972;2023-06-14T15:09:34;48.45;36.69;68.34;;
45109;Laerm;30447;48.742;8.972;2023-06-14T15:12:01;45.83;36.20;68.94;;
45109;Laerm;30447;48.742;8.972;2023-06-14T15:14:28;40.60;36.91;56.03;;
45109;Laerm;30447;48.742;8.972;2023-06-14T15:16:55;40.17;36.69;49.30;;
45109;Laerm;30447;48.742;8.972;2023-06-14T15:19:21;41.18;37.12;57.34;;
45109;Laerm;30447;48.742;8.972;2023-06-14T15:21:48;40.39;36.69;46.69;;
45109;Laerm;30447;48.742;8.972;2023-06-14T15:24:14;40.15;36.45;50.93;;
45109;Laerm;30447;48.742;8.972;2023-06-14T15:26:41;40.46;36.45;49.21;;
45109;Laerm;30447;48.742;8.972;2023-06-14T15:29:08;40.33;36.45;52.05;;
45109;Laerm;30447;48.742;8.972;2023-06-14T15:31:34;44.49;35.94;64.36;;
45109;Laerm;30447;48.742;8.972;2023-06-14T15:34:01;46.61;36.20;68.76;;
45109;Laerm;30447;48.742;8.972;2023-06-14T15:36:27;47.46;36.69;61.71;;
45109;Laerm;30447;48.742;8.972;2023-06-14T15:38:54;45.68;36.20;62.63;;
45109;Laerm;30447;48.742;8.972;2023-06-14T15:41:21;46.66;36.69;60.90;;
45109;Laerm;30447;48.742;8.972;2023-06-14T15:43:47;48.71;37.32;66.79;;
45109;Laerm;30447;48.742;8.972;2023-06-14T15:46:14;48.25;37.12;68.37;;
45109;Laerm;30447;48.742;8.972;2023-06-14T15:48:41;48.88;37.12;71.23;;
45109;Laerm;30447;48.742;8.972;2023-06-14T15:51:08;46.36;36.20;66.33;;
45109;Laerm;30447;48.742;8.972;2023-06-14T15:53:35;43.35;36.45;61.72;;
45109;Laerm;30447;48.742;8.972;2023-06-14T15:56:02;39.65;35.94;47.32;;
45109;Laerm;30447;48.742;8.972;2023-06-14T15:58:28;42.73;36.20;57.73;;
45109;Laerm;30447;48.742;8.972;2023-06-14T16:00:55;48.42;37.12;66.41;;
45109;Laerm;30447;48.742;8.972;2023-06-14T16:03:22;52.41;36.45;69.19;;
45109;Laerm;30447;48.742;8.972;2023-06-14T16:05:48;50.03;36.91;68.62;;
45109;Laerm;30447;48.742;8.972;2023-06-14T16:08:15;48.10;36.91;65.61;;
45109;Laerm;30447;48.742;8.972;2023-06-14T16:10:42;45.81;36.91;63.24;;
45109;Laerm;30447;48.742;8.972;2023-06-14T16:13:08;49.08;37.88;65.71;;
45109;Laerm;30447;48.742;8.972;2023-06-14T16:15:35;53.06;37.70;71.37;;
45109;Laerm;30447;48.742;8.972;2023-06-14T16:18:02;51.15;36.45;65.99;;
45109;Laerm;30447;48.742;8.972;2023-06-14T16:20:28;48.02;36.20;67.19;;
45109;Laerm;30447;48.742;8.972;2023-06-14T16:22:55;46.29;36.20;67.35;;
45109;Laerm;30447;48.742;8.972;2023-06-14T16:25:21;49.87;36.69;65.57;;
45109;Laerm;30447;48.742;8.972;2023-06-14T16:27:48;49.69;36.69;65.30;;
45109;Laerm;30447;48.742;8.972;2023-06-14T16:30:16;41.66;36.20;53.88;;
45109;Laerm;30447;48.742;8.972;2023-06-14T16:32:42;43.78;36.69;56.98;;
45109;Laerm;30447;48.742;8.972;2023-06-14T16:35:09;42.97;37.12;56.80;;
45109;Laerm;30447;48.742;8.972;2023-06-14T16:37:36;52.09;36.45;65.08;;
45109;Laerm;30447;48.742;8.972;2023-06-14T16:40:03;43.00;37.12;60.51;;
45109;Laerm;30447;48.742;8.972;2023-06-14T16:42:30;41.93;36.45;60.83;;
45109;Laerm;30447;48.742;8.972;2023-06-14T16:44:58;41.32;36.45;51.36;;
45109;Laerm;30447;48.742;8.972;2023-06-14T16:47:27;40.21;36.20;50.46;;
45109;Laerm;30447;48.742;8.972;2023-06-14T16:49:53;44.81;36.91;66.00;;
45109;Laerm;30447;48.742;8.972;2023-06-14T16:52:20;48.96;37.12;66.39;;
45109;Laerm;30447;48.742;8.972;2023-06-14T16:54:46;47.30;36.45;69.15;;
45109;Laerm;30447;48.742;8.972;2023-06-14T16:57:13;43.75;36.20;66.70;;
45109;Laerm;30447;48.742;8.972;2023-06-14T16:59:40;41.10;36.91;54.69;;
45109;Laerm;30447;48.742;8.972;2023-06-14T17:02:06;42.75;37.32;55.96;;
45109;Laerm;30447;48.742;8.972;2023-06-14T17:04:34;41.23;36.20;55.71;;
45109;Laerm;30447;48.742;8.972;2023-06-14T17:07:01;41.13;35.94;55.58;;
45109;Laerm;30447;48.742;8.972;2023-06-14T17:09:30;41.52;36.91;56.74;;
45109;Laerm;30447;48.742;8.972;2023-06-14T17:11:56;46.63;36.20;66.96;;
45109;Laerm;30447;48.742;8.972;2023-06-14T17:14:23;40.52;35.36;50.25;;
45109;Laerm;30447;48.742;8.972;2023-06-14T17:16:50;40.52;35.94;50.52;;
45109;Laerm;30447;48.742;8.972;2023-06-14T17:19:16;42.18;36.91;53.32;;
45109;Laerm;30447;48.742;8.972;2023-06-14T17:21:43;42.04;37.32;58.38;;
45109;Laerm;30447;48.742;8.972;2023-06-14T17:24:13;40.78;36.69;46.25;;
45109;Laerm;30447;48.742;8.972;2023-06-14T17:26:40;40.84;35.66;56.34;;
45109;Laerm;30447;48.742;8.972;2023-06-14T17:29:06;45.52;36.20;63.83;;
45109;Laerm;30447;48.742;8.972;2023-06-14T17:31:33;46.01;37.52;64.06;;
45109;Laerm;30447;48.742;8.972;2023-06-14T17:34:00;47.41;35.66;64.32;;
45109;Laerm;30447;48.742;8.972;2023-06-14T17:36:26;46.01;35.04;69.90;;
45109;Laerm;30447;48.742;8.972;2023-06-14T17:38:53;44.62;35.66;60.11;;
45109;Laerm;30447;48.742;8.972;2023-06-14T17:41:20;44.11;35.66;61.14;;
45109;Laerm;30447;48.742;8.972;2023-06-14T17:43:49;44.74;35.94;64.48;;
45109;Laerm;30447;48.742;8.972;2023-06-14T17:46:16;46.01;36.91;64.17;;
45109;Laerm;30447;48.742;8.972;2023-06-14T17:48:43;44.76;35.94;60.28;;
45109;Laerm;30447;48.742;8.972;2023-06-14T17:51:09;40.61;35.04;49.41;;
45109;Laerm;30447;48.742;8.972;2023-06-14T17:53:36;41.91;37.32;55.54;;
45109;Laerm;30447;48.742;8.972;2023-06-14T17:56:03;41.54;36.69;50.33;;
45109;Laerm;30447;48.742;8.972;2023-06-14T17:58:30;40.59;35.94;52.75;;
45109;Laerm;30447;48.742;8.972;2023-06-14T18:00:56;42.09;35.66;61.09;;
45109;Laerm;30447;48.742;8.972;2023-06-14T18:03:23;42.57;35.66;60.84;;
45109;Laerm;30447;48.742;8.972;2023-06-14T18:05:50;41.29;36.20;54.68;;
45109;Laerm;30447;48.742;8.972;2023-06-14T18:08:16;41.89;35.66;57.38;;
45109;Laerm;30447;48.742;8.972;2023-06-14T18:10:43;50.03;35.04;70.77;;
45109;Laerm;30447;48.742;8.972;2023-06-14T18:13:10;41.93;35.04;58.12;;
45109;Laerm;30447;48.742;8.972;2023-06-14T18:15:36;41.91;35.04;57.70;;
45109;Laerm;30447;48.742;8.972;2023-06-14T18:18:04;40.24;35.94;55.55;;
45109;Laerm;30447;48.742;8.972;2023-06-14T18:20:32;50.40;35.94;67.46;;
45109;Laerm;30447;48.742;8.972;2023-06-14T18:22:59;49.88;35.04;68.19;;
45109;Laerm;30447;48.742;8.972;2023-06-14T18:25:25;41.15;35.36;59.02;;
45109;Laerm;30447;48.742;8.972;2023-06-14T18:27:52;41.33;35.36;55.67;;
45109;Laerm;30447;48.742;8.972;2023-06-14T18:31:08;42.59;35.66;58.84;;
45109;Laerm;30447;48.742;8.972;2023-06-14T18:33:35;43.96;34.31;59.08;;
45109;Laerm;30447;48.742;8.972;2023-06-14T18:36:01;46.26;35.66;64.12;;
45109;Laerm;30447;48.742;8.972;2023-06-14T18:38:28;40.27;35.04;57.64;;
45109;Laerm;30447;48.742;8.972;2023-06-14T18:40:54;40.05;36.20;53.04;;
45109;Laerm;30447;48.742;8.972;2023-06-14T18:43:21;41.26;33.90;55.10;;
45109;Laerm;30447;48.742;8.972;2023-06-14T18:45:48;40.53;35.66;53.39;;
45109;Laerm;30447;48.742;8.972;2023-06-14T18:48:14;41.80;35.94;60.53;;
45109;Laerm;30447;48.742;8.972;2023-06-14T18:50:41;40.56;35.94;57.93;;
45109;Laerm;30447;48.742;8.972;2023-06-14T18:53:07;41.65;35.94;58.85;;
45109;Laerm;30447;48.742;8.972;2023-06-14T18:55:34;40.19;35.04;55.57;;
45109;Laerm;30447;48.742;8.972;2023-06-14T18:58:01;39.52;35.04;55.73;;
45109;Laerm;30447;48.742;8.972;2023-06-14T19:00:27;39.53;35.36;53.16;;
45109;Laerm;30447;48.742;8.972;2023-06-14T19:02:56;39.79;35.66;49.02;;
45109;Laerm;30447;48.742;8.972;2023-06-14T19:05:22;39.36;35.36;46.48;;
45109;Laerm;30447;48.742;8.972;2023-06-14T19:07:49;40.94;33.90;59.68;;
45109;Laerm;30447;48.742;8.972;2023-06-14T19:10:16;43.90;36.20;62.47;;
45109;Laerm;30447;48.742;8.972;2023-06-14T19:12:42;40.79;35.04;52.83;;
45109;Laerm;30447;48.742;8.972;2023-06-14T19:15:09;40.11;35.36;51.93;;
45109;Laerm;30447;48.742;8.972;2023-06-14T19:17:36;40.64;35.66;67.81;;
45109;Laerm;30447;48.742;8.972;2023-06-14T19:20:03;49.60;35.66;75.79;;
45109;Laerm;30447;48.742;8.972;2023-06-14T19:22:30;43.06;35.04;71.82;;
45109;Laerm;30447;48.742;8.972;2023-06-14T19:24:57;47.41;35.66;71.80;;
45109;Laerm;30447;48.742;8.972;2023-06-14T19:27:24;44.64;35.94;63.38;;
45109;Laerm;30447;48.742;8.972;2023-06-14T19:29:51;52.09;35.04;68.22;;
45109;Laerm;30447;48.742;8.972;2023-06-14T19:32:18;48.35;33.90;64.05;;
45109;Laerm;30447;48.742;8.972;2023-06-14T19:34:44;49.90;35.94;65.68;;
45109;Laerm;30447;48.742;8.972;2023-06-14T19:37:11;49.88;36.45;67.22;;
45109;Laerm;30447;48.742;8.972;2023-06-14T19:39:38;49.26;35.66;67.84;;
45109;Laerm;30447;48.742;8.972;2023-06-14T19:42:05;41.48;35.36;64.70;;
45109;Laerm;30447;48.742;8.972;2023-06-14T19:44:33;39.66;35.66;44.94;;
45109;Laerm;30447;48.742;8.972;2023-06-14T19:46:59;39.67;35.66;56.91;;
45109;Laerm;30447;48.742;8.972;2023-06-14T19:49:26;45.47;36.45;63.69;;
45109;Laerm;30447;48.742;8.972;2023-06-14T19:51:52;45.55;35.66;60.71;;
45109;Laerm;30447;48.742;8.972;2023-06-14T19:54:19;41.10;35.94;59.40;;
45109;Laerm;30447;48.742;8.972;2023-06-14T19:56:46;40.02;34.31;55.83;;
45109;Laerm;30447;48.742;8.972;2023-06-14T19:59:12;40.02;35.94;51.49;;
45109;Laerm;30447;48.742;8.972;2023-06-14T20:01:39;39.70;35.04;57.21;;
45109;Laerm;30447;48.742;8.972;2023-06-14T20:04:06;42.40;35.94;62.32;;
45109;Laerm;30447;48.742;8.972;2023-06-14T20:06:32;39.25;34.69;50.98;;
45109;Laerm;30447;48.742;8.972;2023-06-14T20:08:59;39.08;34.69;44.27;;
45109;Laerm;30447;48.742;8.972;2023-06-14T20:11:26;39.84;36.20;45.48;;
45109;Laerm;30447;48.742;8.972;2023-06-14T20:13:53;39.25;35.04;44.43;;
45109;Laerm;30447;48.742;8.972;2023-06-14T20:16:20;40.17;36.20;66.56;;
45109;Laerm;30447;48.742;8.972;2023-06-14T20:18:47;39.98;35.66;52.84;;
45109;Laerm;30447;48.742;8.972;2023-06-14T20:21:13;39.14;35.36;46.45;;
45109;Laerm;30447;48.742;8.972;2023-06-14T20:23:40;40.34;35.66;44.51;;
45109;Laerm;30447;48.742;8.972;2023-06-14T20:26:06;45.57;35.36;57.88;;
45109;Laerm;30447;48.742;8.972;2023-06-14T20:28:34;39.33;35.66;44.19;;
45109;Laerm;30447;48.742;8.972;2023-06-14T20:31:01;39.56;35.04;46.87;;
45109;Laerm;30447;48.742;8.972;2023-06-14T20:33:27;39.65;35.36;45.01;;
45109;Laerm;30447;48.742;8.972;2023-06-14T20:35:55;39.17;34.69;43.81;;
45109;Laerm;30447;48.742;8.972;2023-06-14T20:38:23;39.52;35.04;43.04;;
45109;Laerm;30447;48.742;8.972;2023-06-14T20:40:50;40.26;36.69;44.62;;
45109;Laerm;30447;48.742;8.972;2023-06-14T20:43:18;39.13;34.69;49.97;;
45109;Laerm;30447;48.742;8.972;2023-06-14T20:45:46;39.16;35.04;42.16;;
45109;Laerm;30447;48.742;8.972;2023-06-14T20:48:12;39.90;35.94;48.60;;
45109;Laerm;30447;48.742;8.972;2023-06-14T20:50:39;39.21;35.04;43.09;;
45109;Laerm;30447;48.742;8.972;2023-06-14T20:53:06;38.40;33.90;41.30;;
45109;Laerm;30447;48.742;8.972;2023-06-14T20:55:32;38.20;34.69;43.81;;
45109;Laerm;30447;48.742;8.972;2023-06-14T20:57:59;38.36;33.44;42.22;;
45109;Laerm;30447;48.742;8.972;2023-06-14T21:00:25;38.14;33.90;47.14;;
45109;Laerm;30447;48.742;8.972;2023-06-14T21:02:53;38.90;34.31;42.71;;
45109;Laerm;30447;48.742;8.972;2023-06-14T21:05:20;38.59;33.90;44.03;;
45109;Laerm;30447;48.742;8.972;2023-06-14T21:07:46;39.66;34.31;44.11;;
45109;Laerm;30447;48.742;8.972;2023-06-14T21:10:13;38.16;33.90;53.40;;
45109;Laerm;30447;48.742;8.972;2023-06-14T21:12:40;38.06;32.93;43.77;;
45109;Laerm;30447;48.742;8.972;2023-06-14T21:15:07;38.00;33.44;41.89;;
45109;Laerm;30447;48.742;8.972;2023-06-14T21:17:35;37.92;33.44;43.19;;
45109;Laerm;30447;48.742;8.972;2023-06-14T21:20:03;38.59;34.31;43.81;;
45109;Laerm;30447;48.742;8.972;2023-06-14T21:22:31;38.70;34.69;43.19;;
45109;Laerm;30447;48.742;8.972;2023-06-14T21:24:58;38.17;33.44;48.03;;
45109;Laerm;30447;48.742;8.972;2023-06-14T21:27:25;37.97;33.90;42.65;;
45109;Laerm;30447;48.742;8.972;2023-06-14T21:29:51;37.59;32.93;49.19;;
45109;Laerm;30447;48.742;8.972;2023-06-14T21:32:20;38.16;34.69;43.77;;
45109;Laerm;30447;48.742;8.972;2023-06-14T21:34:47;37.70;32.93;41.53;;
45109;Laerm;30447;48.742;8.972;2023-06-14T21:37:13;38.02;32.93;42.76;;
45109;Laerm;30447;48.742;8.972;2023-06-14T21:39:40;38.57;33.55;50.87;;
45109;Laerm;30447;48.742;8.972;2023-06-14T21:42:07;37.64;33.90;40.43;;
45109;Laerm;30447;48.742;8.972;2023-06-14T21:44:40;38.53;34.69;46.33;;
45109;Laerm;30447;48.742;8.972;2023-06-14T21:47:14;39.09;34.69;50.40;;
45109;Laerm;30447;48.742;8.972;2023-06-14T21:49:41;37.69;34.31;40.43;;
45109;Laerm;30447;48.742;8.972;2023-06-14T21:52:11;37.37;32.35;40.53;;
45109;Laerm;30447;48.742;8.972;2023-06-14T21:54:38;37.83;33.90;42.03;;
45109;Laerm;30447;48.742;8.972;2023-06-14T21:57:05;38.06;32.93;57.34;;
45109;Laerm;30447;48.742;8.972;2023-06-14T21:59:33;37.91;33.44;40.98;;
45109;Laerm;30447;48.742;8.972;2023-06-14T22:02:00;37.84;33.44;43.49;;
45109;Laerm;30447;48.742;8.972;2023-06-14T22:04:26;37.62;33.44;44.62;;
45109;Laerm;30447;48.742;8.972;2023-06-14T22:06:53;37.65;33.90;44.19;;
45109;Laerm;30447;48.742;8.972;2023-06-14T22:09:20;37.97;33.90;54.18;;
45109;Laerm;30447;48.742;8.972;2023-06-14T22:11:46;37.80;33.90;44.47;;
45109;Laerm;30447;48.742;8.972;2023-06-14T22:14:13;38.10;33.90;41.53;;
45109;Laerm;30447;48.742;8.972;2023-06-14T22:16:39;39.81;35.04;42.93;;
45109;Laerm;30447;48.742;8.972;2023-06-14T22:19:08;38.55;33.44;42.22;;
45109;Laerm;30447;48.742;8.972;2023-06-14T22:21:35;37.88;33.90;41.75;;
45109;Laerm;30447;48.742;8.972;2023-06-14T22:24:03;37.81;33.44;45.42;;
45109;Laerm;30447;48.742;8.972;2023-06-14T22:26:30;37.49;32.35;51.59;;
45109;Laerm;30447;48.742;8.972;2023-06-14T22:29:00;37.26;32.93;41.30;;
45109;Laerm;30447;48.742;8.972;2023-06-14T22:31:32;37.23;33.44;40.03;;
45109;Laerm;30447;48.742;8.972;2023-06-14T22:34:03;37.50;32.93;42.71;;
45109;Laerm;30447;48.742;8.972;2023-06-14T22:36:30;37.51;32.93;40.43;;
45109;Laerm;30447;48.742;8.972;2023-06-14T22:38:56;37.45;32.35;41.61;;
45109;Laerm;30447;48.742;8.972;2023-06-14T22:41:23;37.69;32.93;43.09;;
45109;Laerm;30447;48.742;8.972;2023-06-14T22:43:52;38.27;34.31;42.53;;
45109;Laerm;30447;48.742;8.972;2023-06-14T22:46:19;37.82;33.44;41.22;;
45109;Laerm;30447;48.742;8.972;2023-06-14T22:48:49;37.40;32.35;44.03;;
45109;Laerm;30447;48.742;8.972;2023-06-14T22:51:21;37.54;32.93;43.77;;
45109;Laerm;30447;48.742;8.972;2023-06-14T22:53:49;38.62;32.93;45.80;;
45109;Laerm;30447;48.742;8.972;2023-06-14T22:56:19;38.76;33.90;46.13;;
45109;Laerm;30447;48.742;8.972;2023-06-14T22:58:47;37.95;33.44;41.89;;
45109;Laerm;30447;48.742;8.972;2023-06-14T23:01:17;37.49;32.93;40.33;;
45109;Laerm;30447;48.742;8.972;2023-06-14T23:03:46;37.37;33.44;40.03;;
45109;Laerm;30447;48.742;8.972;2023-06-14T23:06:16;37.36;32.93;44.03;;
45109;Laerm;30447;48.742;8.972;2023-06-14T23:08:44;37.53;33.90;48.29;;
45109;Laerm;30447;48.742;8.972;2023-06-14T23:11:15;37.43;32.93;40.33;;
45109;Laerm;30447;48.742;8.972;2023-06-14T23:13:45;37.55;32.93;40.23;;
45109;Laerm;30447;48.742;8.972;2023-06-14T23:16:15;37.47;33.44;41.55;;
45109;Laerm;30447;48.742;8.972;2023-06-14T23:18:41;37.36;33.09;39.92;;
45109;Laerm;30447;48.742;8.972;2023-06-14T23:21:08;37.73;32.93;41.46;;
45109;Laerm;30447;48.742;8.972;2023-06-14T23:23:37;37.63;33.44;40.43;;
45109;Laerm;30447;48.742;8.972;2023-06-14T23:26:06;37.57;33.44;48.84;;
45109;Laerm;30447;48.742;8.972;2023-06-14T23:28:35;37.20;32.58;40.89;;
45109;Laerm;30447;48.742;8.972;2023-06-14T23:31:03;37.88;32.35;45.04;;
45109;Laerm;30447;48.742;8.972;2023-06-14T23:33:39;37.51;32.93;42.65;;
45109;Laerm;30447;48.742;8.972;2023-06-14T23:36:07;37.61;33.44;51.80;;
45109;Laerm;30447;48.742;8.972;2023-06-14T23:38:35;37.71;33.90;40.89;;
45109;Laerm;30447;48.742;8.972;2023-06-14T23:41:09;37.98;32.93;42.93;;
45109;Laerm;30447;48.742;8.972;2023-06-14T23:43:36;37.38;31.68;42.16;;
45109;Laerm;30447;48.742;8.972;2023-06-14T23:46:09;37.36;32.93;40.43;;
45109;Laerm;30447;48.742;8.972;2023-06-14T23:48:38;37.95;33.90;42.03;;
45109;Laerm;30447;48.742;8.972;2023-06-14T23:51:05;37.75;33.44;41.22;;
45109;Laerm;30447;48.742;8.972;2023-06-14T23:53:32;38.24;33.44;42.03;;
45109;Laerm;30447;48.742;8.972;2023-06-14T23:56:01;38.13;33.90;44.43;;
45109;Laerm;30447;48.742;8.972;2023-06-14T23:58:29;37.34;33.44;39.92;;
